createdAt,value
2022-12-25T00:00:37.506Z,98586.41
2022-12-25T00:01:39.052Z,98594.22
2022-12-25T00:02:40.635Z,98588.13
2022-12-25T00:03:42.324Z,98589.66
2022-12-25T00:04:44.281Z,98588.88
2022-12-25T00:05:45.732Z,98592.63
2022-12-25T00:06:47.261Z,98581.31
2022-12-25T00:07:48.843Z,98580.97
2022-12-25T00:08:50.685Z,98569.31
2022-12-25T00:09:52.213Z,98582.50
2022-12-25T00:11:00.601Z,98573.47
2022-12-25T00:12:02.049Z,98575.34
2022-12-25T00:13:03.496Z,98576.47
2022-12-25T00:14:05.973Z,98578.75
2022-12-25T00:15:07.802Z,98575.34
2022-12-25T00:16:15.970Z,98570.75
2022-12-25T00:17:17.496Z,98580.53
2022-12-25T00:18:18.978Z,98573.75
2022-12-25T00:19:20.522Z,98577.41
2022-12-25T00:20:22.030Z,98574.78
2022-12-25T00:21:23.578Z,98573.25
2022-12-25T00:22:25.082Z,98570.63
2022-12-25T00:23:27.772Z,98573.34
2022-12-25T00:24:29.561Z,98575.28
2022-12-25T00:25:31.070Z,98566.59
2022-12-25T00:26:32.870Z,98567.81
2022-12-25T00:27:34.859Z,98564.81
2022-12-25T00:28:36.436Z,98558.03
2022-12-25T00:29:38.327Z,98563.69
2022-12-25T00:30:41.055Z,98568.22
2022-12-25T00:31:42.626Z,98564.47
2022-12-25T00:32:44.148Z,98571.59
2022-12-25T00:33:48.105Z,98573.47
2022-12-25T00:34:49.578Z,98568.97
2022-12-25T00:36:01.321Z,98572.72
2022-12-25T00:37:02.848Z,98572.31
2022-12-25T00:38:04.772Z,98570.34
2022-12-25T00:39:07.611Z,98574.88
2022-12-25T00:40:11.266Z,98575.63
2022-12-25T00:41:15.004Z,98571.88
2022-12-25T00:42:19.070Z,98566.19
2022-12-25T00:43:21.211Z,98574.50
2022-12-25T00:44:22.698Z,98571.13
2022-12-25T00:45:24.551Z,98570.00
2022-12-25T00:46:26.142Z,98572.31
2022-12-25T00:47:27.752Z,98567.81
2022-12-25T00:48:29.960Z,98571.19
2022-12-25T00:49:31.831Z,98569.69
2022-12-25T00:50:33.275Z,98570.75
2022-12-25T00:51:34.930Z,98568.22
2022-12-25T00:52:36.474Z,98570.84
2022-12-25T00:53:38.279Z,98570.09
2022-12-25T00:54:39.712Z,98573.84
2022-12-25T00:55:41.205Z,98577.50
2022-12-25T00:56:42.702Z,98576.38
2022-12-25T00:57:44.443Z,98577.16
2022-12-25T00:58:46.907Z,98579.78
2022-12-25T00:59:48.352Z,98579.47
2022-12-25T01:00:50.030Z,98577.63
2022-12-25T01:01:51.674Z,98583.25
2022-12-25T01:02:53.297Z,98578.00
2022-12-25T01:03:55.542Z,98587.78
2022-12-25T01:04:57.498Z,98578.66
2022-12-25T01:06:05.302Z,98580.53
2022-12-25T01:07:06.772Z,98583.88
2022-12-25T01:08:08.374Z,98587.28
2022-12-25T01:09:28.849Z,98590.69
2022-12-25T01:10:30.430Z,98596.72
2022-12-25T01:11:31.858Z,98590.31
2022-12-25T01:12:36.267Z,98590.31
2022-12-25T01:13:38.044Z,98594.84
2022-12-25T01:14:39.468Z,98586.56
2022-12-25T01:15:40.900Z,98584.66
2022-12-25T01:16:42.485Z,98586.84
2022-12-25T01:17:44.583Z,98584.22
2022-12-25T01:18:47.044Z,98581.56
2022-12-25T01:19:48.506Z,98575.91
2022-12-25T01:20:50.219Z,98577.78
2022-12-25T01:21:51.671Z,98578.09
2022-12-25T01:22:53.272Z,98582.53
2022-12-25T01:23:55.195Z,98581.78
2022-12-25T01:24:56.668Z,98594.13
2022-12-25T01:26:06.672Z,98586.78
2022-12-25T01:27:08.147Z,98587.81
2022-12-25T01:28:09.593Z,98596.16
2022-12-25T01:29:11.389Z,98589.00
2022-12-25T01:30:12.994Z,98593.94
2022-12-25T01:31:16.187Z,98595.47
2022-12-25T01:32:18.331Z,98592.50
2022-12-25T01:33:20.168Z,98597.41
2022-12-25T01:34:21.594Z,98596.41
2022-12-25T01:35:23.501Z,98596.81
2022-12-25T01:36:26.425Z,98587.47
2022-12-25T01:37:27.932Z,98596.13
2022-12-25T01:38:29.795Z,98591.63
2022-12-25T01:39:31.430Z,98585.31
2022-12-25T01:40:34.748Z,98577.00
2022-12-25T01:41:36.246Z,98577.41
2022-12-25T01:42:37.713Z,98580.41
2022-12-25T01:44:05.569Z,98581.16
2022-12-25T01:45:54.847Z,98587.88
2022-12-25T01:46:56.352Z,98583.56
2022-12-25T01:47:58.587Z,98582.03
2022-12-25T01:49:08.175Z,98588.13
2022-12-25T01:50:09.891Z,98588.84
2022-12-25T01:51:35.817Z,98590.00
2022-12-25T01:52:37.345Z,98586.69
2022-12-25T01:53:39.184Z,98591.53
2022-12-25T01:54:48.435Z,98587.56
2022-12-25T01:55:56.340Z,98590.13
2022-12-25T01:57:01.034Z,98589.44
2022-12-25T01:58:03.082Z,98585.28
2022-12-25T01:59:07.270Z,98592.22
2022-12-25T02:00:09.549Z,98591.72
2022-12-25T02:01:11.382Z,98590.47
2022-12-25T02:02:13.085Z,98595.47
2022-12-25T02:03:14.977Z,98592.84
2022-12-25T02:04:41.188Z,98592.00
2022-12-25T02:05:43.289Z,98583.75
2022-12-25T02:06:44.923Z,98583.31
2022-12-25T02:07:48.278Z,98585.97
2022-12-25T02:08:50.167Z,98577.66
2022-12-25T02:09:52.356Z,98576.09
2022-12-25T02:10:53.785Z,98585.13
2022-12-25T02:11:58.281Z,98582.41
2022-12-25T02:13:01.175Z,98585.03
2022-12-25T02:14:17.954Z,98586.56
2022-12-25T02:15:23.022Z,98590.56
2022-12-25T02:16:32.596Z,98594.47
2022-12-25T02:18:05.920Z,98600.41
2022-12-25T02:19:35.975Z,98597.78
2022-12-25T02:21:01.919Z,98592.59
2022-12-25T02:22:10.759Z,98598.28
2022-12-25T02:23:34.998Z,98586.56
2022-12-25T02:25:05.202Z,98586.97
2022-12-25T02:26:29.559Z,98589.19
2022-12-25T02:28:19.368Z,98588.09
2022-12-25T02:29:42.831Z,98582.97
2022-12-25T02:30:49.939Z,98587.16
2022-12-25T02:32:05.091Z,98586.72
2022-12-25T02:33:33.340Z,98590.47
2022-12-25T02:34:58.383Z,98591.56
2022-12-25T02:36:06.180Z,98596.00
2022-12-25T02:37:14.890Z,98591.06
2022-12-25T02:38:23.224Z,98592.69
2022-12-25T02:39:57.991Z,98592.75
2022-12-25T02:41:07.304Z,98592.75
2022-12-25T02:42:13.928Z,98587.84
2022-12-25T02:43:41.651Z,98580.28
2022-12-25T02:45:04.118Z,98593.44
2022-12-25T02:46:30.877Z,98586.72
2022-12-25T02:47:53.136Z,98592.00
2022-12-25T02:49:24.548Z,98586.38
2022-12-25T02:50:44.902Z,98596.50
2022-12-25T02:52:11.244Z,98593.78
2022-12-25T02:53:31.839Z,98594.22
2022-12-25T02:55:04.369Z,98589.00
2022-12-25T02:56:24.696Z,98588.34
2022-12-25T02:57:50.635Z,98583.06
2022-12-25T02:59:11.238Z,98582.72
2022-12-25T03:00:32.446Z,98579.41
2022-12-25T03:01:55.344Z,98578.56
2022-12-25T03:03:19.135Z,98581.19
2022-12-25T03:04:42.476Z,98584.19
2022-12-25T03:06:03.807Z,98576.44
2022-12-25T03:07:07.961Z,98581.38
2022-12-25T03:08:21.477Z,98585.81
2022-12-25T03:09:46.381Z,98577.56
2022-12-25T03:11:20.226Z,98579.06
2022-12-25T03:12:42.427Z,98569.06
2022-12-25T03:13:46.902Z,98562.25
2022-12-25T03:15:07.516Z,98562.25
2022-12-25T03:16:27.831Z,98557.50
2022-12-25T03:17:32.417Z,98558.03
2022-12-25T03:18:35.458Z,98560.50
2022-12-25T03:19:55.356Z,98548.84
2022-12-25T03:21:15.787Z,98562.34
2022-12-25T03:22:52.815Z,98558.78
2022-12-25T03:24:06.178Z,98557.41
2022-12-25T03:25:26.488Z,98561.22
2022-12-25T03:26:46.975Z,98558.84
2022-12-25T03:27:53.126Z,98551.56
2022-12-25T03:28:54.908Z,98557.59
2022-12-25T03:30:14.602Z,98551.72
2022-12-25T03:31:26.584Z,98551.13
2022-12-25T03:32:47.957Z,98547.56
2022-12-25T03:34:43.741Z,98542.31
2022-12-25T03:36:04.637Z,98547.22
2022-12-25T03:37:27.913Z,98544.50
2022-12-25T03:38:51.516Z,98549.16
2022-12-25T03:40:22.394Z,98546.19
2022-12-25T03:42:19.507Z,98535.59
2022-12-25T03:43:58.612Z,98538.72
2022-12-25T03:45:36.561Z,98530.22
2022-12-25T03:47:05.982Z,98520.53
2022-12-25T03:48:10.025Z,98525.91
2022-12-25T03:49:50.003Z,98525.75
2022-12-25T03:51:15.216Z,98525.53
2022-12-25T03:52:37.945Z,98524.44
2022-12-25T03:54:13.799Z,98525.66
2022-12-25T03:55:35.732Z,98525.75
2022-12-25T03:56:57.197Z,98518.69
2022-12-25T03:58:16.947Z,98525.03
2022-12-25T03:59:39.127Z,98529.28
2022-12-25T04:00:59.001Z,98521.75
2022-12-25T04:02:18.895Z,98526.31
2022-12-25T04:03:39.060Z,98530.72
2022-12-25T04:04:59.653Z,98530.16
2022-12-25T04:06:19.537Z,98525.03
2022-12-25T04:07:39.333Z,98526.09
2022-12-25T04:08:59.479Z,98530.06
2022-12-25T04:10:19.176Z,98530.50
2022-12-25T04:11:38.970Z,98530.66
2022-12-25T04:12:58.847Z,98529.03
2022-12-25T04:14:19.195Z,98533.13
2022-12-25T04:15:39.182Z,98536.16
2022-12-25T04:16:59.031Z,98529.69
2022-12-25T04:18:18.807Z,98531.66
2022-12-25T04:19:38.851Z,98538.03
2022-12-25T04:20:58.492Z,98537.69
2022-12-25T04:22:18.271Z,98538.13
2022-12-25T04:23:38.081Z,98533.72
2022-12-25T04:24:58.361Z,98540.94
2022-12-25T04:26:18.698Z,98532.94
2022-12-25T04:27:38.434Z,98539.41
2022-12-25T04:28:58.265Z,98538.47
2022-12-25T04:30:18.581Z,98547.66
2022-12-25T04:31:38.553Z,98551.56
2022-12-25T04:32:58.619Z,98549.44
2022-12-25T04:34:18.416Z,98551.53
2022-12-25T04:35:38.576Z,98552.31
2022-12-25T04:36:40.001Z,98552.56
2022-12-25T04:37:41.424Z,98552.81
2022-12-25T04:38:43.404Z,98552.03
2022-12-25T04:39:44.833Z,98554.66
2022-12-25T04:40:47.382Z,98557.28
2022-12-25T04:41:48.841Z,98559.91
2022-12-25T04:42:51.380Z,98564.09
2022-12-25T04:43:52.786Z,98565.53
2022-12-25T04:44:54.183Z,98565.53
2022-12-25T04:46:00.558Z,98565.28
2022-12-25T04:47:07.495Z,98566.03
2022-12-25T04:48:12.222Z,98563.00
2022-12-25T04:49:13.659Z,98565.63
2022-12-25T04:50:15.108Z,98567.38
2022-12-25T04:51:20.235Z,98567.63
2022-12-25T04:52:21.658Z,98572.44
2022-12-25T04:53:23.108Z,98569.75
2022-12-25T04:54:24.542Z,98578.06
2022-12-25T04:55:26.276Z,98573.56
2022-12-25T04:56:27.754Z,98578.75
2022-12-25T04:57:29.191Z,98578.41
2022-12-25T04:58:31.796Z,98581.44
2022-12-25T04:59:33.240Z,98575.09
2022-12-25T05:00:35.025Z,98565.25
2022-12-25T05:01:36.568Z,98561.09
2022-12-25T05:02:38.291Z,98562.16
2022-12-25T05:03:40.372Z,98560.22
2022-12-25T05:04:41.896Z,98555.28
2022-12-25T05:05:43.640Z,98556.72
2022-12-25T05:06:45.085Z,98552.25
2022-12-25T05:07:46.522Z,98557.50
2022-12-25T05:08:47.985Z,98554.09
2022-12-25T05:09:49.411Z,98555.22
2022-12-25T05:10:51.900Z,98560.78
2022-12-25T05:11:53.384Z,98547.97
2022-12-25T05:12:54.813Z,98555.47
2022-12-25T05:13:57.414Z,98551.28
2022-12-25T05:14:58.935Z,98544.06
2022-12-25T05:16:00.768Z,98553.81
2022-12-25T05:17:02.282Z,98536.06
2022-12-25T05:18:03.914Z,98552.84
2022-12-25T05:19:05.330Z,98545.63
2022-12-25T05:20:07.347Z,98539.19
2022-12-25T05:21:11.598Z,98541.81
2022-12-25T05:22:13.037Z,98541.38
2022-12-25T05:23:14.443Z,98530.78
2022-12-25T05:24:15.874Z,98532.31
2022-12-25T05:25:17.295Z,98538.44
2022-12-25T05:26:22.305Z,98533.28
2022-12-25T05:27:23.771Z,98530.19
2022-12-25T05:28:25.287Z,98528.53
2022-12-25T05:29:26.791Z,98537.84
2022-12-25T05:30:28.196Z,98529.44
2022-12-25T05:31:30.002Z,98533.81
2022-12-25T05:32:31.495Z,98532.97
2022-12-25T05:33:33.458Z,98529.16
2022-12-25T05:34:34.925Z,98517.88
2022-12-25T05:35:38.045Z,98519.41
2022-12-25T05:36:39.838Z,98523.44
2022-12-25T05:37:41.280Z,98521.81
2022-12-25T05:38:42.686Z,98517.41
2022-12-25T05:39:44.130Z,98515.13
2022-12-25T05:40:45.873Z,98510.13
2022-12-25T05:41:47.376Z,98515.03
2022-12-25T05:42:49.033Z,98511.75
2022-12-25T05:43:50.478Z,98512.94
2022-12-25T05:44:51.918Z,98511.41
2022-12-25T05:45:53.891Z,98516.56
2022-12-25T05:46:55.408Z,98518.13
2022-12-25T05:47:56.880Z,98517.00
2022-12-25T05:48:58.296Z,98524.56
2022-12-25T05:49:59.723Z,98516.56
2022-12-25T05:51:11.831Z,98522.91
2022-12-25T05:52:13.437Z,98521.91
2022-12-25T05:53:15.905Z,98524.66
2022-12-25T05:54:17.368Z,98525.66
2022-12-25T05:55:18.987Z,98515.91
2022-12-25T05:56:20.741Z,98515.13
2022-12-25T05:57:22.148Z,98515.03
2022-12-25T05:58:23.543Z,98520.91
2022-12-25T05:59:24.960Z,98522.72
2022-12-25T06:00:26.478Z,98517.75
2022-12-25T06:01:29.600Z,98520.41
2022-12-25T06:02:31.290Z,98521.91
2022-12-25T06:03:32.913Z,98523.13
2022-12-25T06:04:34.349Z,98522.72
2022-12-25T06:05:38.146Z,98525.34
2022-12-25T06:06:40.099Z,98527.63
2022-12-25T06:07:41.502Z,98532.44
2022-12-25T06:08:42.955Z,98531.25
2022-12-25T06:09:44.414Z,98532.34
2022-12-25T06:10:46.677Z,98524.22
2022-12-25T06:11:48.639Z,98531.34
2022-12-25T06:12:50.065Z,98525.56
2022-12-25T06:13:52.819Z,98526.47
2022-12-25T06:14:54.760Z,98518.56
2022-12-25T06:15:56.259Z,98525.13
2022-12-25T06:16:58.137Z,98523.38
2022-12-25T06:18:00.357Z,98521.50
2022-12-25T06:19:01.894Z,98524.34
2022-12-25T06:20:04.021Z,98524.78
2022-12-25T06:21:10.284Z,98525.88
2022-12-25T06:22:11.695Z,98524.69
2022-12-25T06:23:13.319Z,98530.72
2022-12-25T06:24:21.001Z,98526.47
2022-12-25T06:25:22.965Z,98530.50
2022-12-25T06:26:24.699Z,98523.31
2022-12-25T06:27:26.573Z,98522.09
2022-12-25T06:28:27.994Z,98525.72
2022-12-25T06:29:29.398Z,98527.91
2022-12-25T06:30:30.888Z,98533.69
2022-12-25T06:31:32.648Z,98523.31
2022-12-25T06:32:34.169Z,98525.59
2022-12-25T06:33:36.396Z,98526.00
2022-12-25T06:34:37.859Z,98522.19
2022-12-25T06:35:40.219Z,98518.13
2022-12-25T06:36:42.192Z,98518.13
2022-12-25T06:37:43.619Z,98522.19
2022-12-25T06:38:45.444Z,98522.09
2022-12-25T06:39:47.998Z,98522.84
2022-12-25T06:40:49.411Z,98522.53
2022-12-25T06:41:51.279Z,98517.72
2022-12-25T06:42:53.073Z,98520.44
2022-12-25T06:43:57.437Z,98522.63
2022-12-25T06:44:58.834Z,98525.78
2022-12-25T06:46:09.933Z,98533.34
2022-12-25T06:47:11.563Z,98538.25
2022-12-25T06:48:13.004Z,98535.75
2022-12-25T06:49:14.428Z,98541.00
2022-12-25T06:50:16.007Z,98546.69
2022-12-25T06:51:19.408Z,98547.88
2022-12-25T06:52:20.829Z,98543.06
2022-12-25T06:53:22.236Z,98544.47
2022-12-25T06:54:23.627Z,98542.47
2022-12-25T06:55:25.051Z,98544.25
2022-12-25T06:56:28.733Z,98547.44
2022-12-25T06:57:30.256Z,98548.78
2022-12-25T06:58:31.704Z,98546.38
2022-12-25T06:59:33.121Z,98546.78
2022-12-25T07:00:34.572Z,98545.25
2022-12-25T07:01:56.686Z,98544.50
2022-12-25T07:02:58.496Z,98540.75
2022-12-25T07:04:03.190Z,98538.28
2022-12-25T07:05:05.197Z,98536.50
2022-12-25T07:06:06.663Z,98537.69
2022-12-25T07:07:09.912Z,98538.13
2022-12-25T07:08:11.434Z,98535.94
2022-12-25T07:09:13.000Z,98541.94
2022-12-25T07:10:14.413Z,98540.75
2022-12-25T07:11:16.554Z,98541.84
2022-12-25T07:12:23.666Z,98544.59
2022-12-25T07:13:26.263Z,98538.22
2022-12-25T07:14:27.805Z,98539.75
2022-12-25T07:15:29.214Z,98537.97
2022-12-25T07:16:30.836Z,98539.94
2022-12-25T07:17:34.349Z,98543.00
2022-12-25T07:18:35.859Z,98534.69
2022-12-25T07:19:44.424Z,98544.88
2022-12-25T07:20:46.473Z,98540.38
2022-12-25T07:21:48.309Z,98542.59
2022-12-25T07:22:49.716Z,98546.72
2022-12-25T07:23:51.210Z,98553.63
2022-12-25T07:24:52.607Z,98541.09
2022-12-25T07:25:58.874Z,98544.16
2022-12-25T07:27:00.620Z,98555.78
2022-12-25T07:28:02.065Z,98549.75
2022-12-25T07:29:03.467Z,98548.22
2022-12-25T07:30:05.428Z,98547.34
2022-12-25T07:31:12.787Z,98549.56
2022-12-25T07:32:14.701Z,98551.00
2022-12-25T07:33:16.598Z,98550.66
2022-12-25T07:34:18.536Z,98557.88
2022-12-25T07:35:20.088Z,98559.31
2022-12-25T07:36:21.802Z,98560.84
2022-12-25T07:37:23.257Z,98553.38
2022-12-25T07:38:24.745Z,98557.31
2022-12-25T07:39:26.199Z,98551.38
2022-12-25T07:40:27.668Z,98553.75
2022-12-25T07:41:29.428Z,98553.09
2022-12-25T07:42:31.368Z,98545.22
2022-12-25T07:43:32.779Z,98545.22
2022-12-25T07:44:34.254Z,98537.41
2022-12-25T07:45:35.695Z,98536.31
2022-12-25T07:46:37.489Z,98532.16
2022-12-25T07:47:39.688Z,98531.72
2022-12-25T07:48:41.171Z,98528.31
2022-12-25T07:49:42.590Z,98521.94
2022-12-25T07:50:44.182Z,98518.56
2022-12-25T07:51:45.986Z,98521.94
2022-12-25T07:52:47.410Z,98521.28
2022-12-25T07:53:49.138Z,98514.91
2022-12-25T07:54:50.552Z,98510.09
2022-12-25T07:56:00.436Z,98512.38
2022-12-25T07:57:02.188Z,98517.53
2022-12-25T07:58:03.741Z,98518.31
2022-12-25T07:59:08.720Z,98513.25
2022-12-25T08:00:10.683Z,98513.75
2022-12-25T08:01:18.327Z,98515.88
2022-12-25T08:02:21.954Z,98522.56
2022-12-25T08:03:23.697Z,98529.59
2022-12-25T08:04:25.276Z,98534.03
2022-12-25T08:05:27.228Z,98534.34
2022-12-25T08:06:35.048Z,98537.41
2022-12-25T08:07:36.903Z,98537.06
2022-12-25T08:08:40.162Z,98536.06
2022-12-25T08:09:41.584Z,98539.09
2022-12-25T08:10:52.405Z,98539.66
2022-12-25T08:11:53.857Z,98544.13
2022-12-25T08:12:56.361Z,98537.34
2022-12-25T08:13:57.847Z,98537.03
2022-12-25T08:15:01.883Z,98538.09
2022-12-25T08:16:06.262Z,98538.19
2022-12-25T08:17:08.064Z,98536.31
2022-12-25T08:18:09.629Z,98532.59
2022-12-25T08:19:11.483Z,98532.69
2022-12-25T08:20:13.048Z,98534.31
2022-12-25T08:21:15.977Z,98529.81
2022-12-25T08:22:17.312Z,98528.03
2022-12-25T08:23:18.778Z,98528.13
2022-12-25T08:24:20.580Z,98518.00
2022-12-25T08:25:22.082Z,98518.00
2022-12-25T08:26:24.109Z,98526.66
2022-12-25T08:27:25.584Z,98517.34
2022-12-25T08:28:27.064Z,98516.22
2022-12-25T08:29:29.005Z,98512.06
2022-12-25T08:30:30.641Z,98515.88
2022-12-25T08:31:34.568Z,98501.63
2022-12-25T08:32:36.777Z,98502.53
2022-12-25T08:33:38.486Z,98501.03
2022-12-25T08:34:39.968Z,98495.41
2022-12-25T08:35:41.800Z,98503.25
2022-12-25T08:36:43.211Z,98514.59
2022-12-25T08:37:44.654Z,98515.03
2022-12-25T08:38:46.585Z,98515.53
2022-12-25T08:39:48.049Z,98510.53
2022-12-25T08:40:49.771Z,98510.53
2022-12-25T08:41:51.249Z,98508.25
2022-12-25T08:42:52.687Z,98511.38
2022-12-25T08:43:54.191Z,98502.28
2022-12-25T08:44:55.645Z,98510.53
2022-12-25T08:45:57.493Z,98513.50
2022-12-25T08:46:58.898Z,98518.09
2022-12-25T08:48:01.272Z,98515.88
2022-12-25T08:49:02.704Z,98523.44
2022-12-25T08:50:04.760Z,98520.53
2022-12-25T08:51:11.049Z,98523.00
2022-12-25T08:52:12.468Z,98519.09
2022-12-25T08:53:14.778Z,98519.84
2022-12-25T08:54:16.227Z,98529.28
2022-12-25T08:55:17.974Z,98526.22
2022-12-25T08:56:20.611Z,98528.19
2022-12-25T08:57:22.112Z,98529.44
2022-12-25T08:58:23.579Z,98523.41
2022-12-25T08:59:25.090Z,98530.56
2022-12-25T09:00:26.488Z,98524.44
2022-12-25T09:01:28.322Z,98529.63
2022-12-25T09:02:30.030Z,98528.63
2022-12-25T09:03:34.251Z,98525.38
2022-12-25T09:04:35.740Z,98527.00
2022-12-25T09:05:38.064Z,98528.84
2022-12-25T09:06:39.868Z,98523.28
2022-12-25T09:07:41.367Z,98526.75
2022-12-25T09:08:48.753Z,98527.16
2022-12-25T09:09:51.209Z,98521.13
2022-12-25T09:10:52.969Z,98532.16
2022-12-25T09:11:54.436Z,98527.84
2022-12-25T09:12:55.916Z,98520.19
2022-12-25T09:13:57.355Z,98528.69
2022-12-25T09:14:58.808Z,98528.09
2022-12-25T09:16:00.416Z,98527.84
2022-12-25T09:17:01.844Z,98526.81
2022-12-25T09:18:03.383Z,98522.97
2022-12-25T09:19:04.863Z,98523.06
2022-12-25T09:20:07.198Z,98524.03
2022-12-25T09:21:12.228Z,98516.31
2022-12-25T09:22:13.649Z,98519.28
2022-12-25T09:23:15.055Z,98526.75
2022-12-25T09:24:16.430Z,98523.53
2022-12-25T09:25:17.890Z,98521.47
2022-12-25T09:26:19.836Z,98529.69
2022-12-25T09:27:21.245Z,98526.75
2022-12-25T09:28:22.624Z,98518.47
2022-12-25T09:29:24.026Z,98521.59
2022-12-25T09:30:25.470Z,98518.28
2022-12-25T09:31:27.278Z,98528.47
2022-12-25T09:32:28.726Z,98525.44
2022-12-25T09:33:30.194Z,98530.03
2022-12-25T09:34:31.615Z,98541.81
2022-12-25T09:35:33.041Z,98544.09
2022-12-25T09:36:34.888Z,98536.97
2022-12-25T09:37:36.326Z,98534.88
2022-12-25T09:38:37.826Z,98538.03
2022-12-25T09:39:45.879Z,98545.28
2022-12-25T09:40:48.537Z,98540.97
2022-12-25T09:41:58.686Z,98531.66
2022-12-25T09:43:01.901Z,98532.38
2022-12-25T09:44:21.591Z,98524.41
2022-12-25T09:45:32.907Z,98518.06
2022-12-25T09:46:50.763Z,98516.63
2022-12-25T09:47:55.694Z,98516.97
2022-12-25T09:49:12.931Z,98511.03
2022-12-25T09:50:15.972Z,98502.03
2022-12-25T09:51:19.101Z,98505.09
2022-12-25T09:52:28.767Z,98493.31
2022-12-25T09:53:37.615Z,98490.50
2022-12-25T09:54:46.274Z,98491.53
2022-12-25T09:56:10.938Z,98483.97
2022-12-25T09:57:13.990Z,98486.44
2022-12-25T09:58:16.447Z,98491.00
2022-12-25T09:59:26.206Z,98490.38
2022-12-25T10:00:40.608Z,98482.59
2022-12-25T10:01:59.967Z,98476.91
2022-12-25T10:03:13.328Z,98467.66
2022-12-25T10:04:20.709Z,98469.97
2022-12-25T10:06:08.028Z,98467.44
2022-12-25T10:07:30.799Z,98456.72
2022-12-25T10:08:57.080Z,98450.88
2022-12-25T10:10:25.021Z,98441.31
2022-12-25T10:11:34.857Z,98437.66
2022-12-25T10:12:54.182Z,98435.72
2022-12-25T10:14:14.104Z,98427.34
2022-12-25T10:15:45.627Z,98423.03
2022-12-25T10:17:01.331Z,98412.72
2022-12-25T10:18:21.661Z,98394.63
2022-12-25T10:19:29.670Z,98376.78
2022-12-25T10:20:50.648Z,98381.47
2022-12-25T10:21:56.968Z,98383.97
2022-12-25T10:23:02.114Z,98385.94
2022-12-25T10:24:16.485Z,98391.03
2022-12-25T10:25:21.097Z,98389.34
2022-12-25T10:26:25.908Z,98399.66
2022-12-25T10:27:34.868Z,98400.59
2022-12-25T10:28:41.475Z,98395.84
2022-12-25T10:29:45.459Z,98409.56
2022-12-25T10:30:51.494Z,98402.50
2022-12-25T10:31:55.527Z,98409.22
2022-12-25T10:32:58.610Z,98398.81
2022-12-25T10:34:00.299Z,98400.50
2022-12-25T10:35:01.747Z,98402.25
2022-12-25T10:36:03.793Z,98398.03
2022-12-25T10:37:05.354Z,98396.66
2022-12-25T10:38:15.896Z,98399.22
2022-12-25T10:39:23.451Z,98407.47
2022-12-25T10:40:24.799Z,98415.25
2022-12-25T10:41:45.167Z,98421.38
2022-12-25T10:42:49.835Z,98423.97
2022-12-25T10:43:54.761Z,98430.31
2022-12-25T10:45:03.672Z,98435.44
2022-12-25T10:46:14.073Z,98437.53
2022-12-25T10:47:24.448Z,98429.97
2022-12-25T10:48:28.805Z,98434.25
2022-12-25T10:49:38.643Z,98431.25
2022-12-25T10:50:43.141Z,98434.53
2022-12-25T10:51:44.926Z,98432.66
2022-12-25T10:53:06.265Z,98439.66
2022-12-25T10:54:19.685Z,98432.38
2022-12-25T10:55:26.547Z,98429.13
2022-12-25T10:56:30.572Z,98435.69
2022-12-25T10:57:31.972Z,98435.75
2022-12-25T10:58:34.046Z,98439.97
2022-12-25T10:59:45.874Z,98442.38
2022-12-25T11:00:58.800Z,98443.66
2022-12-25T11:02:24.612Z,98439.09
2022-12-25T11:03:33.087Z,98442.22
2022-12-25T11:04:35.797Z,98434.59
2022-12-25T11:05:37.295Z,98433.59
2022-12-25T11:06:39.109Z,98433.31
2022-12-25T11:07:54.356Z,98434.00
2022-12-25T11:08:59.022Z,98426.56
2022-12-25T11:10:18.337Z,98424.53
2022-12-25T11:11:20.673Z,98425.88
2022-12-25T11:12:38.273Z,98421.66
2022-12-25T11:13:49.171Z,98410.03
2022-12-25T11:15:00.000Z,98404.13
2022-12-25T11:16:11.092Z,98402.66
2022-12-25T11:17:21.625Z,98404.81
2022-12-25T11:18:25.214Z,98404.38
2022-12-25T11:19:30.391Z,98403.88
2022-12-25T11:20:33.189Z,98394.78
2022-12-25T11:21:38.429Z,98390.59
2022-12-25T11:22:45.516Z,98397.56
2022-12-25T11:23:50.355Z,98391.97
2022-12-25T11:24:52.360Z,98384.53
2022-12-25T11:26:08.703Z,98384.50
2022-12-25T11:27:23.410Z,98379.47
2022-12-25T11:28:26.052Z,98373.22
2022-12-25T11:29:44.918Z,98374.13
2022-12-25T11:30:50.807Z,98373.91
2022-12-25T11:31:55.332Z,98365.72
2022-12-25T11:33:00.859Z,98374.91
2022-12-25T11:34:14.728Z,98367.31
2022-12-25T11:35:18.677Z,98375.66
2022-12-25T11:36:42.283Z,98378.97
2022-12-25T11:37:48.000Z,98375.56
2022-12-25T11:38:50.975Z,98378.63
2022-12-25T11:39:52.400Z,98372.22
2022-12-25T11:40:59.544Z,98369.50
2022-12-25T11:42:20.025Z,98374.53
2022-12-25T11:43:40.240Z,98363.78
2022-12-25T11:45:06.874Z,98361.22
2022-12-25T11:46:26.481Z,98363.88
2022-12-25T11:47:35.006Z,98354.41
2022-12-25T11:48:47.075Z,98352.09
2022-12-25T11:50:01.371Z,98350.16
2022-12-25T11:51:05.714Z,98355.81
2022-12-25T11:52:10.279Z,98353.97
2022-12-25T11:53:25.176Z,98347.59
2022-12-25T11:54:33.732Z,98360.09
2022-12-25T11:55:42.783Z,98345.84
2022-12-25T11:56:44.454Z,98345.09
2022-12-25T11:57:55.137Z,98342.91
2022-12-25T11:59:16.409Z,98342.44
2022-12-25T12:00:20.467Z,98348.38
2022-12-25T12:01:34.437Z,98343.16
2022-12-25T12:02:46.045Z,98346.97
2022-12-25T12:03:48.024Z,98339.56
2022-12-25T12:05:01.893Z,98345.59
2022-12-25T12:06:07.087Z,98336.25
2022-12-25T12:07:28.796Z,98329.44
2022-12-25T12:08:32.577Z,98329.97
2022-12-25T12:09:58.557Z,98316.84
2022-12-25T12:11:16.406Z,98312.69
2022-12-25T12:12:38.098Z,98319.63
2022-12-25T12:13:49.898Z,98313.19
2022-12-25T12:15:03.661Z,98315.06
2022-12-25T12:16:05.988Z,98305.44
2022-12-25T12:17:11.998Z,98309.72
2022-12-25T12:18:22.441Z,98311.22
2022-12-25T12:19:30.643Z,98312.31
2022-12-25T12:20:34.743Z,98306.31
2022-12-25T12:21:36.588Z,98302.91
2022-12-25T12:22:38.214Z,98302.50
2022-12-25T12:23:49.257Z,98300.66
2022-12-25T12:24:58.434Z,98286.66
2022-12-25T12:26:00.548Z,98283.22
2022-12-25T12:27:12.524Z,98282.50
2022-12-25T12:28:22.696Z,98280.66
2022-12-25T12:29:29.457Z,98276.94
2022-12-25T12:30:35.341Z,98284.28
2022-12-25T12:31:47.088Z,98284.13
2022-12-25T12:32:53.372Z,98283.38
2022-12-25T12:33:58.495Z,98279.97
2022-12-25T12:35:05.620Z,98286.81
2022-12-25T12:36:14.165Z,98279.19
2022-12-25T12:37:29.275Z,98289.38
2022-12-25T12:38:32.462Z,98281.16
2022-12-25T12:39:38.158Z,98283.16
2022-12-25T12:40:54.277Z,98274.16
2022-12-25T12:41:55.759Z,98271.53
2022-12-25T12:42:57.281Z,98279.94
2022-12-25T12:44:03.107Z,98275.03
2022-12-25T12:45:14.423Z,98277.66
2022-12-25T12:46:30.691Z,98269.66
2022-12-25T12:47:43.435Z,98275.69
2022-12-25T12:48:47.795Z,98271.16
2022-12-25T12:49:57.683Z,98267.81
2022-12-25T12:51:08.610Z,98270.94
2022-12-25T12:52:33.934Z,98267.53
2022-12-25T12:53:38.314Z,98265.72
2022-12-25T12:55:13.037Z,98268.75
2022-12-25T12:56:20.292Z,98262.34
2022-12-25T12:57:25.593Z,98264.69
2022-12-25T12:58:33.960Z,98268.81
2022-12-25T12:59:44.441Z,98263.13
2022-12-25T13:00:55.443Z,98257.44
2022-12-25T13:02:36.892Z,98260.41
2022-12-25T13:03:57.661Z,98258.94
2022-12-25T13:05:02.014Z,98263.88
2022-12-25T13:06:11.499Z,98258.69
2022-12-25T13:07:44.912Z,98275.31
2022-12-25T13:09:05.253Z,98272.69
2022-12-25T13:10:28.873Z,98274.81
2022-12-25T13:11:34.850Z,98264.84
2022-12-25T13:12:36.912Z,98260.19